Time;durP1;ratioP1;P1;durP2;ratioP2;P2;SDS_P1;SDS_P2;PMS_P1;PMS_P2;Temp;Humidity;BMP_temperature;BMP_pressure;BME280_temperature;BME280_humidity;BME280_pressure;Samples;Min_cycle;Max_cycle;Signal;HPM_P1;HPM_P2
2022/05/16 00:02:09;;;;;;;9.35;6.45;;;12.30;99.90;;;;;;5056585;28;20057;-54
2022/05/16 00:04:40;;;;;;;10.03;7.03;;;12.20;99.90;;;;;;5056631;28;20095;-54
2022/05/16 00:07:06;;;;;;;13.90;7.35;;;12.00;99.90;;;;;;5056805;28;20041;-54
2022/05/16 00:09:33;;;;;;;11.02;7.00;;;12.00;99.90;;;;;;5056762;28;20032;-54
2022/05/16 00:11:59;;;;;;;13.13;6.93;;;12.00;99.90;;;;;;5056531;28;20383;-54
2022/05/16 00:14:26;;;;;;;12.18;7.20;;;11.90;99.90;;;;;;5056644;28;20036;-54
2022/05/16 00:16:52;;;;;;;12.68;7.35;;;11.90;99.90;;;;;;5056278;28;20025;-54
2022/05/16 00:19:18;;;;;;;8.25;6.20;;;11.80;99.90;;;;;;5056506;28;20546;-54
2022/05/16 00:21:44;;;;;;;11.18;7.43;;;11.80;99.90;;;;;;5056621;28;20053;-53
2022/05/16 00:24:10;;;;;;;16.10;6.40;;;11.70;99.90;;;;;;5056357;28;20029;-54
2022/05/16 00:26:36;;;;;;;10.32;6.97;;;11.70;99.90;;;;;;5055610;28;20029;-54
2022/05/16 00:29:02;;;;;;;15.52;6.90;;;11.60;99.90;;;;;;5056127;28;20029;-54
2022/05/16 00:31:28;;;;;;;12.68;6.70;;;11.50;99.90;;;;;;5056296;28;20020;-54
2022/05/16 00:33:54;;;;;;;11.82;6.78;;;11.50;99.90;;;;;;5056349;28;20025;-54
2022/05/16 00:36:20;;;;;;;9.77;6.40;;;11.40;99.90;;;;;;5056065;28;20140;-54
2022/05/16 00:38:46;;;;;;;12.07;6.32;;;11.40;99.90;;;;;;5056081;28;20518;-53
2022/05/16 00:41:12;;;;;;;11.93;6.43;;;11.40;99.90;;;;;;5055981;28;20018;-54
2022/05/16 00:43:51;;;;;;;11.63;6.85;;;11.40;99.90;;;;;;5056279;28;20029;-54
2022/05/16 00:46:17;;;;;;;10.77;6.70;;;11.40;99.90;;;;;;5055836;28;20049;-53
2022/05/16 00:48:44;;;;;;;13.02;6.72;;;11.30;99.90;;;;;;5056041;28;20078;-54
2022/05/16 00:51:15;;;;;;;10.68;6.57;;;11.20;99.90;;;;;;5055874;28;20037;-54
2022/05/16 00:53:43;;;;;;;10.82;6.82;;;11.20;99.90;;;;;;5055774;28;20108;-54
2022/05/16 00:56:09;;;;;;;17.25;7.40;;;11.20;99.90;;;;;;5056024;28;20025;-54
2022/05/16 00:58:38;;;;;;;12.63;6.90;;;11.30;99.90;;;;;;5055820;28;20108;-54
2022/05/16 01:04:47;;;;;;;11.73;6.88;;;11.30;99.90;;;;;;5055777;28;20382;-54
2022/05/16 01:06:39;;;;;;;19.73;8.35;;;11.30;99.90;;;;;;5056073;28;20025;-54
2022/05/16 01:09:05;;;;;;;11.48;6.75;;;11.30;99.90;;;;;;5055690;28;20025;-54
2022/05/16 01:11:32;;;;;;;17.42;6.88;;;11.20;99.90;;;;;;5055541;28;20482;-54
2022/05/16 01:13:58;;;;;;;8.88;5.97;;;11.10;99.90;;;;;;5055404;28;20025;-54
2022/05/16 01:16:24;;;;;;;12.07;6.35;;;11.10;99.90;;;;;;5055257;28;20021;-54
2022/05/16 01:18:50;;;;;;;10.98;6.63;;;11.00;99.90;;;;;;5055517;28;20037;-54
2022/05/16 01:21:26;;;;;;;12.75;7.10;;;11.00;99.90;;;;;;5055327;28;20371;-53
2022/05/16 01:24:04;;;;;;;11.88;7.28;;;10.90;99.90;;;;;;5055494;28;20029;-53
2022/05/16 01:26:32;;;;;;;13.02;6.70;;;10.90;99.90;;;;;;5055305;28;20443;-54
2022/05/16 01:28:58;;;;;;;10.07;6.68;;;10.90;99.90;;;;;;5055095;28;20056;-54
2022/05/16 01:31:24;;;;;;;9.93;6.45;;;10.90;99.90;;;;;;5055184;28;20029;-54
2022/05/16 01:33:50;;;;;;;10.50;6.35;;;10.90;99.90;;;;;;5055245;28;20025;-54
2022/05/16 01:36:16;;;;;;;14.50;7.78;;;10.90;99.90;;;;;;5054775;28;20052;-54
2022/05/16 01:38:42;;;;;;;11.23;7.38;;;10.90;99.90;;;;;;5054117;28;20032;-54
2022/05/16 01:41:14;;;;;;;16.17;6.70;;;10.80;99.90;;;;;;5054990;28;20386;-54
2022/05/16 01:43:55;;;;;;;14.73;7.22;;;10.80;99.90;;;;;;5054960;28;20032;-54
2022/05/16 01:46:41;;;;;;;14.55;7.45;;;10.80;99.90;;;;;;5055035;28;20025;-53
2022/05/16 01:49:09;;;;;;;13.45;6.85;;;10.80;99.90;;;;;;5054504;28;20086;-53
2022/05/16 01:51:35;;;;;;;15.77;7.50;;;10.80;99.90;;;;;;5054804;28;20363;-53
2022/05/16 01:54:03;;;;;;;9.73;6.75;;;10.80;99.90;;;;;;5054846;28;20501;-54
2022/05/16 01:56:34;;;;;;;11.00;6.50;;;10.70;99.90;;;;;;5054734;28;20072;-54
2022/05/16 01:59:01;;;;;;;9.13;6.45;;;10.60;99.90;;;;;;5054942;28;20017;-53
2022/05/16 02:01:28;;;;;;;11.85;7.25;;;10.60;99.90;;;;;;5054768;28;20032;-53
2022/05/16 02:03:54;;;;;;;9.77;6.40;;;10.60;99.90;;;;;;5054611;28;20044;-53
2022/05/16 02:06:20;;;;;;;10.27;6.22;;;10.60;99.90;;;;;;5054657;28;20037;-53
2022/05/16 02:08:49;;;;;;;10.20;6.70;;;10.60;99.90;;;;;;5054602;28;20029;-53
2022/05/16 02:11:16;;;;;;;8.77;6.05;;;10.60;99.90;;;;;;5054488;28;20065;-53
2022/05/16 02:13:43;;;;;;;12.48;6.93;;;10.60;99.90;;;;;;5054604;28;20558;-53
2022/05/16 02:16:09;;;;;;;10.85;6.97;;;10.50;99.90;;;;;;5054442;28;20053;-53
2022/05/16 02:18:36;;;;;;;11.95;7.18;;;10.50;99.90;;;;;;5054536;28;20033;-53
2022/05/16 02:26:33;;;;;;;11.02;7.30;;;10.60;99.90;;;;;;5054224;28;20032;-53
2022/05/16 02:28:59;;;;;;;12.75;7.35;;;10.70;99.90;;;;;;5054454;28;20049;-54
2022/05/16 02:31:25;;;;;;;9.68;6.68;;;10.60;99.90;;;;;;5054361;28;20032;-54
2022/05/16 02:33:51;;;;;;;10.57;7.05;;;10.60;99.90;;;;;;5054414;28;20086;-53
2022/05/16 02:36:17;;;;;;;11.98;7.30;;;10.50;99.90;;;;;;5054230;28;20113;-53
2022/05/16 02:38:44;;;;;;;11.30;6.82;;;10.50;99.90;;;;;;5054300;28;20551;-54
2022/05/16 02:41:10;;;;;;;13.48;7.18;;;10.50;99.90;;;;;;5054501;28;20485;-53
2022/05/16 02:43:35;;;;;;;11.88;7.18;;;10.40;99.90;;;;;;5054325;28;20056;-53
2022/05/16 02:46:01;;;;;;;11.80;7.28;;;10.40;99.90;;;;;;5054095;28;20033;-53
2022/05/16 02:48:27;;;;;;;16.05;8.07;;;10.40;99.90;;;;;;5053930;28;20032;-54
2022/05/16 02:50:53;;;;;;;11.68;7.30;;;10.40;99.90;;;;;;5057759;28;20493;-53
2022/05/16 02:53:19;;;;;;;18.25;8.02;;;10.30;99.90;;;;;;5058086;28;20048;-53
2022/05/16 02:55:45;;;;;;;11.45;7.72;;;10.40;99.90;;;;;;5058160;28;20028;-53
2022/05/16 02:58:11;;;;;;;16.85;7.70;;;10.40;99.90;;;;;;5058270;28;20127;-53
2022/05/16 03:00:38;;;;;;;10.80;7.15;;;10.40;99.90;;;;;;5058041;28;20127;-53
2022/05/16 03:03:04;;;;;;;8.70;6.47;;;10.30;99.90;;;;;;5058012;28;20383;-54
2022/05/16 03:05:30;;;;;;;11.57;6.38;;;10.30;99.90;;;;;;5058329;28;20033;-53
2022/05/16 03:07:56;;;;;;;9.15;6.47;;;10.30;99.90;;;;;;5057857;28;20036;-53
2022/05/16 03:10:22;;;;;;;10.85;6.13;;;10.20;99.90;;;;;;5057873;28;20121;-53
2022/05/16 03:12:49;;;;;;;10.82;6.45;;;10.30;99.90;;;;;;5057999;28;20032;-54
2022/05/16 03:15:16;;;;;;;12.25;6.35;;;10.20;99.90;;;;;;5057479;28;20031;-54
2022/05/16 03:17:42;;;;;;;10.13;6.45;;;10.20;99.90;;;;;;5057716;28;20386;-53
2022/05/16 03:20:12;;;;;;;10.15;6.72;;;10.10;99.90;;;;;;5057983;28;20021;-53
2022/05/16 03:22:38;;;;;;;8.80;6.60;;;10.10;99.90;;;;;;5057926;28;20036;-53
2022/05/16 03:25:05;;;;;;;11.07;6.47;;;10.20;99.90;;;;;;5057547;28;20033;-53
2022/05/16 03:27:31;;;;;;;10.63;5.95;;;10.20;99.90;;;;;;5057573;28;20037;-53
2022/05/16 03:29:57;;;;;;;9.93;6.30;;;10.30;99.90;;;;;;5057320;28;20475;-54
2022/05/16 03:32:23;;;;;;;13.32;6.72;;;10.30;99.90;;;;;;5057786;28;20033;-53
2022/05/16 03:34:51;;;;;;;11.38;6.93;;;10.30;99.90;;;;;;5057269;28;20136;-54
2022/05/16 03:37:17;;;;;;;11.02;6.72;;;10.20;99.90;;;;;;5057377;28;20086;-53
2022/05/16 03:42:32;;;;;;;13.48;6.68;;;10.30;99.90;;;;;;5057112;28;20547;-53
2022/05/16 03:44:58;;;;;;;14.23;6.32;;;10.30;99.90;;;;;;5057237;28;20072;-53
2022/05/16 03:47:25;;;;;;;10.18;6.45;;;10.30;99.90;;;;;;5057302;28;20032;-53
2022/05/16 03:49:51;;;;;;;9.88;6.57;;;10.30;99.90;;;;;;5057125;28;20029;-53
2022/05/16 03:52:17;;;;;;;10.85;6.93;;;10.30;99.90;;;;;;5057191;28;20048;-53
2022/05/16 03:54:43;;;;;;;10.55;6.90;;;10.40;99.90;;;;;;5057091;28;20059;-53
2022/05/16 03:57:10;;;;;;;9.55;6.30;;;10.40;99.90;;;;;;5057231;28;20428;-53
2022/05/16 03:59:36;;;;;;;12.13;6.10;;;10.50;99.90;;;;;;5057319;28;20028;-53
2022/05/16 04:02:02;;;;;;;10.13;6.25;;;10.50;99.90;;;;;;5056124;28;20047;-53
2022/05/16 04:04:28;;;;;;;10.73;6.15;;;10.50;99.90;;;;;;5056686;28;20037;-54
2022/05/16 04:06:55;;;;;;;16.38;7.30;;;10.50;99.90;;;;;;5056867;28;20092;-54
2022/05/16 04:09:21;;;;;;;15.02;6.60;;;10.50;99.90;;;;;;5056961;28;20477;-53
2022/05/16 04:11:47;;;;;;;15.02;7.15;;;10.60;99.90;;;;;;5056622;28;20541;-54
2022/05/16 04:14:13;;;;;;;14.18;7.35;;;10.60;99.90;;;;;;5056765;28;20086;-53
2022/05/16 04:16:39;;;;;;;11.73;7.78;;;10.70;99.90;;;;;;5056716;28;20029;-53
2022/05/16 04:19:07;;;;;;;14.50;7.60;;;10.80;99.90;;;;;;5056609;28;20021;-53
2022/05/16 04:21:38;;;;;;;12.88;8.00;;;10.90;99.90;;;;;;5056618;28;20053;-53
2022/05/16 04:24:05;;;;;;;16.75;7.57;;;10.90;99.90;;;;;;5056837;28;20051;-53
2022/05/16 04:26:32;;;;;;;17.80;8.65;;;11.10;99.90;;;;;;5056292;28;20033;-53
2022/05/16 04:28:58;;;;;;;16.83;8.75;;;11.20;99.90;;;;;;5056142;28;20437;-53
2022/05/16 04:31:25;;;;;;;17.50;8.20;;;11.30;99.90;;;;;;5056727;28;20032;-54
2022/05/16 04:33:51;;;;;;;16.40;8.07;;;11.40;99.90;;;;;;5056077;28;20029;-54
2022/05/16 04:36:17;;;;;;;14.48;7.53;;;11.50;99.90;;;;;;5055960;28;20049;-53
2022/05/16 04:38:43;;;;;;;13.30;7.70;;;11.60;99.90;;;;;;5056427;28;20530;-53
2022/05/16 04:43:54;;;;;;;20.70;8.20;;;11.80;99.90;;;;;;5056301;28;20025;-54
2022/05/16 04:46:19;;;;;;;15.45;7.70;;;12.00;99.90;;;;;;5056806;28;20067;-54
2022/05/16 04:48:46;;;;;;;13.98;7.15;;;12.10;99.90;;;;;;5056705;28;20056;-54
2022/05/16 04:51:12;;;;;;;34.65;21.52;;;12.20;99.90;;;;;;5056145;28;20106;-54
2022/05/16 04:53:38;;;;;;;21.70;9.13;;;12.30;99.90;;;;;;5056078;28;20037;-54
2022/05/16 04:56:05;;;;;;;22.15;8.15;;;12.30;99.90;;;;;;5055984;28;20382;-54
2022/05/16 04:58:35;;;;;;;21.52;9.95;;;12.20;99.90;;;;;;5056720;28;20040;-54
2022/05/16 05:01:02;;;;;;;24.50;8.65;;;12.30;99.90;;;;;;5056723;28;20040;-54
2022/05/16 05:03:28;;;;;;;24.67;9.55;;;12.50;99.90;;;;;;5056397;28;20033;-54
2022/05/16 05:05:54;;;;;;;25.75;9.20;;;12.70;99.90;;;;;;5055737;28;20151;-54
2022/05/16 05:08:20;;;;;;;24.75;9.65;;;12.80;99.90;;;;;;5055552;28;20072;-53
2022/05/16 05:16:20;;;;;;;24.60;8.80;;;13.20;99.90;;;;;;5070399;28;20032;-54
2022/05/16 05:18:46;;;;;;;24.90;8.55;;;13.40;99.90;;;;;;5071279;28;20028;-54
2022/05/16 05:21:12;;;;;;;25.70;10.15;;;13.50;99.90;;;;;;5069157;28;20028;-54
2022/05/16 05:23:40;;;;;;;19.67;9.27;;;13.60;99.90;;;;;;5064064;28;20390;-54
2022/05/16 05:26:10;;;;;;;26.73;10.32;;;13.70;99.90;;;;;;5063838;28;20053;-54
2022/05/16 05:28:37;;;;;;;19.02;8.70;;;13.80;99.90;;;;;;5063874;28;20051;-54
2022/05/16 05:31:04;;;;;;;15.23;9.05;;;13.90;99.90;;;;;;5069760;28;20478;-54
2022/05/16 05:33:30;;;;;;;14.60;8.45;;;14.10;99.90;;;;;;5068065;28;20041;-54
2022/05/16 05:35:56;;;;;;;23.02;9.63;;;14.20;99.90;;;;;;5054939;28;20124;-54
2022/05/16 05:38:24;;;;;;;23.33;9.07;;;14.30;99.90;;;;;;5054721;28;20059;-54
2022/05/16 05:40:50;;;;;;;29.13;10.32;;;14.40;99.90;;;;;;5060836;28;20449;-54
2022/05/16 05:43:16;;;;;;;41.00;12.50;;;14.50;99.90;;;;;;5074900;28;20024;-54
2022/05/16 05:45:44;;;;;;;23.67;8.60;;;14.60;99.90;;;;;;5074543;28;20128;-54
2022/05/16 05:48:10;;;;;;;27.00;9.98;;;14.80;99.90;;;;;;5074843;28;20060;-54
2022/05/16 05:50:36;;;;;;;29.73;10.27;;;14.90;99.90;;;;;;5074658;28;20359;-54
2022/05/16 05:53:02;;;;;;;18.17;9.27;;;15.10;99.90;;;;;;5074083;28;20060;-54
2022/05/16 05:55:28;;;;;;;21.60;9.25;;;15.20;99.90;;;;;;5074516;28;20032;-54
2022/05/16 05:57:55;;;;;;;23.88;9.40;;;15.40;99.90;;;;;;5077246;28;20023;-54
2022/05/16 06:00:22;;;;;;;21.48;8.88;;;15.60;99.90;;;;;;5086136;28;20485;-54
2022/05/16 06:02:48;;;;;;;20.00;8.60;;;15.60;99.90;;;;;;5094748;28;20028;-54
2022/05/16 06:05:17;;;;;;;34.50;9.35;;;15.60;99.90;;;;;;5094678;28;20028;-54
2022/05/16 06:07:43;;;;;;;29.13;9.63;;;15.80;99.90;;;;;;5086705;28;20031;-54
2022/05/16 06:10:10;;;;;;;23.77;8.93;;;16.10;99.90;;;;;;5061177;28;20425;-54
2022/05/16 06:12:36;;;;;;;25.42;8.52;;;16.30;99.90;;;;;;5060736;28;20501;-54
2022/05/16 06:15:04;;;;;;;26.63;8.45;;;16.50;99.90;;;;;;5067167;28;20544;-54
2022/05/16 06:17:30;;;;;;;21.45;8.00;;;16.70;99.90;;;;;;5059559;28;20100;-54
2022/05/16 06:19:57;;;;;;;24.38;7.45;;;16.90;99.90;;;;;;5058917;28;20498;-54
2022/05/16 06:22:23;;;;;;;30.02;8.30;;;17.10;99.90;;;;;;5074221;28;20050;-54
2022/05/16 06:27:34;;;;;;;20.20;7.40;;;17.40;99.90;;;;;;5053984;28;20041;-54
2022/05/16 06:30:00;;;;;;;19.05;6.85;;;17.70;99.90;;;;;;5067129;28;20462;-54
2022/05/16 06:32:26;;;;;;;18.88;7.30;;;18.00;99.90;;;;;;5073035;28;20032;-54
2022/05/16 06:34:52;;;;;;;20.10;6.63;;;17.90;98.20;;;;;;5071256;28;20425;-54
2022/05/16 06:37:18;;;;;;;23.80;7.53;;;18.00;97.30;;;;;;5073149;28;20048;-54
2022/05/16 06:39:48;;;;;;;16.65;6.60;;;18.30;98.10;;;;;;5069601;28;20402;-54
2022/05/16 06:42:14;;;;;;;20.57;7.43;;;18.60;96.20;;;;;;5068932;28;20052;-54
2022/05/16 06:44:41;;;;;;;17.75;7.00;;;18.80;99.70;;;;;;5070778;28;20069;-54
2022/05/16 06:47:08;;;;;;;15.40;7.05;;;19.00;94.20;;;;;;5064570;28;20021;-54
2022/05/16 06:49:33;;;;;;;17.15;7.88;;;19.30;97.00;;;;;;5062767;28;20028;-55
2022/05/16 06:51:59;;;;;;;20.40;7.65;;;19.60;99.30;;;;;;5070073;28;20020;-54
2022/05/16 06:54:25;;;;;;;18.30;7.38;;;19.90;95.30;;;;;;5065120;28;20028;-54
2022/05/16 06:56:51;;;;;;;20.38;11.90;;;20.10;92.90;;;;;;5061894;28;20108;-54
2022/05/16 06:59:19;;;;;;;22.65;11.50;;;20.40;92.70;;;;;;5078061;28;20469;-54
2022/05/16 07:01:45;;;;;;;33.08;13.82;;;20.70;95.30;;;;;;5071707;28;20025;-54
2022/05/16 07:04:11;;;;;;;32.33;12.93;;;20.90;91.70;;;;;;5072077;28;20021;-55
2022/05/16 07:06:37;;;;;;;22.17;10.18;;;20.90;91.50;;;;;;5065486;28;20539;-55
2022/05/16 07:09:03;;;;;;;22.13;10.35;;;21.00;90.90;;;;;;5063417;28;20029;-55
2022/05/16 07:11:30;;;;;;;15.73;9.15;;;21.50;90.60;;;;;;5063403;28;20466;-55
2022/05/16 07:13:56;;;;;;;18.27;7.38;;;21.80;90.30;;;;;;5065839;28;20033;-55
2022/05/16 07:16:22;;;;;;;23.60;7.13;;;22.10;88.70;;;;;;5062442;28;20033;-55
2022/05/16 07:18:48;;;;;;;16.25;6.47;;;22.40;89.00;;;;;;5072995;28;20020;-55
2022/05/16 07:21:14;;;;;;;10.68;5.45;;;22.60;87.70;;;;;;5070808;28;20392;-55
2022/05/16 07:23:43;;;;;;;15.93;6.15;;;23.20;79.80;;;;;;5066379;28;20078;-55
2022/05/16 07:28:53;;;;;;;12.27;5.50;;;23.80;72.90;;;;;;5067216;28;20080;-55
2022/05/16 07:31:19;;;;;;;15.23;5.85;;;24.20;71.30;;;;;;5064612;28;20076;-55
2022/05/16 07:33:45;;;;;;;17.02;6.50;;;24.50;63.60;;;;;;5067384;28;20116;-55
2022/05/16 07:36:11;;;;;;;16.80;6.25;;;24.80;67.80;;;;;;5064928;28;20039;-55
2022/05/16 07:38:37;;;;;;;21.25;6.38;;;25.30;61.90;;;;;;5071614;28;20047;-55
2022/05/16 07:41:03;;;;;;;12.32;4.88;;;25.50;61.90;;;;;;5076739;28;20109;-55
2022/05/16 07:43:30;;;;;;;11.30;5.47;;;25.80;60.90;;;;;;5075351;28;20028;-55
2022/05/16 07:45:57;;;;;;;10.60;4.75;;;26.00;58.00;;;;;;5067964;28;20037;-55
2022/05/16 07:48:23;;;;;;;16.33;5.63;;;26.20;58.90;;;;;;5081904;28;20032;-55
2022/05/16 07:50:49;;;;;;;14.75;5.35;;;26.30;57.10;;;;;;5069338;28;20021;-55
2022/05/16 07:53:16;;;;;;;10.20;4.50;;;26.60;59.00;;;;;;5077658;28;20060;-55
2022/05/16 07:55:50;;;;;;;11.95;4.97;;;26.70;57.00;;;;;;5069680;28;20116;-55
2022/05/16 07:58:16;;;;;;;24.88;6.60;;;27.00;54.80;;;;;;5068626;28;20463;-55
2022/05/16 08:00:43;;;;;;;14.00;5.50;;;27.00;52.80;;;;;;5077409;28;20079;-55
2022/05/16 08:03:11;;;;;;;11.57;5.22;;;27.30;52.80;;;;;;5085104;28;20020;-55
2022/05/16 08:05:38;;;;;;;10.80;5.05;;;27.40;54.20;;;;;;5076278;28;20041;-55
2022/05/16 08:10:50;;;;;;;11.20;5.47;;;27.40;53.70;;;;;;5070160;28;20039;-56
2022/05/16 08:13:16;;;;;;;13.85;5.85;;;27.30;51.90;;;;;;5065471;28;20025;-55
2022/05/16 08:15:42;;;;;;;22.08;6.57;;;27.90;51.50;;;;;;5070778;28;20089;-56
2022/05/16 08:18:10;;;;;;;14.80;4.22;;;28.20;52.20;;;;;;5066796;28;20032;-56
2022/05/16 08:20:39;;;;;;;7.90;4.43;;;28.60;48.90;;;;;;5064299;28;20021;-55
2022/05/16 08:23:05;;;;;;;15.55;4.80;;;28.80;49.50;;;;;;5059959;28;20029;-55
2022/05/16 08:25:31;;;;;;;17.70;4.97;;;29.20;47.20;;;;;;5075184;28;20020;-56
2022/05/16 08:27:57;;;;;;;14.82;5.25;;;29.30;48.80;;;;;;5067160;28;20035;-56
2022/05/16 08:30:24;;;;;;;14.85;4.75;;;29.20;47.80;;;;;;5072419;28;20512;-56
2022/05/16 08:32:50;;;;;;;10.90;4.40;;;29.50;47.90;;;;;;5066974;28;20040;-56
2022/05/16 08:35:19;;;;;;;11.50;4.38;;;29.70;44.80;;;;;;5066035;28;20052;-56
2022/05/16 08:40:44;;;;;;;10.00;3.72;;;30.10;44.50;;;;;;5066412;28;20107;-56
2022/05/16 08:43:23;;;;;;;9.13;4.43;;;30.20;43.40;;;;;;5074912;28;20055;-56
2022/05/16 08:46:06;;;;;;;11.55;3.90;;;30.50;43.30;;;;;;5080236;28;20028;-56
2022/05/16 08:48:36;;;;;;;9.32;3.72;;;30.80;43.30;;;;;;5073551;28;20035;-56
2022/05/16 08:51:23;;;;;;;;;;;30.70;43.30;;;;;;5069931;28;20040;-56
2022/05/16 08:54:01;;;;;;;12.90;3.30;;;31.00;41.60;;;;;;5080217;28;19908;-56
2022/05/16 08:56:31;;;;;;;13.88;4.00;;;31.60;42.30;;;;;;5074496;28;20056;-56
2022/05/16 08:59:04;;;;;;;8.60;3.15;;;31.30;39.90;;;;;;5072908;28;20017;-56
2022/05/16 09:01:49;;;;;;;8.35;2.83;;;31.40;37.40;;;;;;5062528;28;20032;-56
2022/05/16 09:04:25;;;;;;;5.18;2.30;;;31.50;37.80;;;;;;5064133;28;20029;-57
2022/05/16 09:07:04;;;;;;;6.70;2.97;;;31.90;35.50;;;;;;5055587;28;20091;-56
2022/05/16 09:09:45;;;;;;;19.50;3.50;;;31.60;33.40;;;;;;5057374;28;20037;-56
2022/05/16 09:12:37;;;;;;;9.50;3.17;;;32.00;31.80;;;;;;5074632;28;20025;-56
2022/05/16 09:15:09;;;;;;;12.80;2.63;;;31.80;34.00;;;;;;5042699;28;20307;-56
2022/05/16 09:17:53;;;;;;;6.93;2.88;;;30.70;32.10;;;;;;5069515;28;20024;-56
2022/05/16 10:30:32;;;;;;;6.80;1.83;;;31.20;26.20;;;;;;5051108;28;20396;-56
2022/05/16 10:36:17;;;;;;;6.85;1.90;;;32.40;27.50;;;;;;5089630;28;20165;-56
2022/05/16 10:39:05;;;;;;;17.98;3.80;;;32.40;26.10;;;;;;5055104;28;20457;-56
2022/05/16 10:41:49;;;;;;;13.82;3.15;;;33.10;25.90;;;;;;5073875;28;20055;-56
2022/05/16 10:45:09;;;;;;;11.75;3.22;;;33.30;24.20;;;;;;5073712;28;20028;-57
2022/05/16 10:48:05;;;;;;;27.83;5.47;;;33.60;27.00;;;;;;5052198;28;20501;-56
2022/05/16 10:50:50;;;;;;;12.73;2.80;;;33.50;25.00;;;;;;5051430;28;20040;-56
2022/05/16 10:54:05;;;;;;;10.00;2.88;;;33.00;23.10;;;;;;5056546;28;20497;-56
2022/05/16 10:56:48;;;;;;;4.60;1.40;;;33.20;23.20;;;;;;5008321;28;20038;-56
2022/05/16 10:59:31;;;;;;;3.10;1.17;;;33.70;23.50;;;;;;4997039;28;20090;-56
2022/05/16 11:02:12;;;;;;;8.82;2.38;;;34.20;24.80;;;;;;5009613;28;20082;-56
2022/05/16 11:05:17;;;;;;;6.38;1.42;;;34.10;23.80;;;;;;5011259;28;20030;-56
2022/05/16 11:08:10;;;;;;;8.80;2.78;;;34.60;24.70;;;;;;4992936;28;20094;-56
2022/05/16 11:11:20;;;;;;;4.75;1.65;;;34.50;23.00;;;;;;4993120;28;20042;-57
2022/05/16 11:13:56;;;;;;;3.80;1.50;;;34.30;22.80;;;;;;4994849;28;20045;-56
2022/05/16 11:16:32;;;;;;;10.43;2.20;;;35.00;25.50;;;;;;4995381;28;20552;-56
2022/05/16 11:19:23;;;;;;;8.30;2.38;;;35.00;25.40;;;;;;4995378;28;20074;-56
2022/05/16 11:21:59;;;;;;;4.28;1.70;;;34.50;22.40;;;;;;5000964;28;20109;-56
2022/05/16 11:24:49;;;;;;;4.95;2.28;;;34.50;21.70;;;;;;5014668;28;20084;-56
2022/05/16 11:27:45;;;;;;;6.63;2.58;;;35.10;23.40;;;;;;5060848;28;20044;-56
2022/05/16 11:30:49;;;;;;;11.75;3.60;;;34.80;23.40;;;;;;5097433;28;20031;-56
2022/05/16 11:33:37;;;;;;;6.20;2.15;;;34.30;23.50;;;;;;5097374;28;20388;-57
2022/05/16 11:36:25;;;;;;;12.15;2.67;;;35.00;22.20;;;;;;5097642;28;20043;-56
2022/05/16 11:39:10;;;;;;;3.47;1.48;;;35.40;23.50;;;;;;5084358;28;20028;-56
2022/05/16 11:41:54;;;;;;;14.63;3.58;;;35.30;21.50;;;;;;5068546;28;20039;-56
2022/05/16 11:44:26;;;;;;;9.52;2.22;;;35.70;22.30;;;;;;5061428;28;20052;-56
2022/05/16 11:46:53;;;;;;;3.90;1.60;;;34.30;21.10;;;;;;5075004;28;20028;-57
2022/05/16 11:49:56;;;;;;;4.97;1.42;;;34.70;21.40;;;;;;5077148;28;20039;-57
2022/05/16 11:52:31;;;;;;;21.13;6.82;;;35.20;23.50;;;;;;5024898;28;20397;-56
2022/05/16 11:55:00;;;;;;;9.57;2.35;;;34.50;22.10;;;;;;5076798;28;20040;-57
2022/05/16 12:03:08;;;;;;;5.22;2.20;;;33.90;22.30;;;;;;5073292;28;20028;-57
2022/05/16 12:05:46;;;;;;;7.68;2.33;;;34.80;24.20;;;;;;5096955;28;20031;-57
2022/05/16 12:08:12;;;;;;;31.20;4.00;;;35.50;24.00;;;;;;5096875;28;20055;-57
2022/05/16 12:11:13;;;;;;;18.33;3.78;;;35.90;22.70;;;;;;5096261;28;20028;-57
2022/05/16 12:14:03;;;;;;;3.53;1.67;;;35.70;22.80;;;;;;5095974;28;20515;-56
2022/05/16 12:16:32;;;;;;;;;;;34.10;21.40;;;;;;5096719;28;20062;-56
2022/05/16 12:19:25;;;;;;;5.35;1.73;;;33.90;23.00;;;;;;5094428;28;19908;-56
2022/05/16 12:22:03;;;;;;;7.68;1.67;;;34.10;23.80;;;;;;5056809;28;20487;-56
2022/05/16 12:24:52;;;;;;;6.50;1.88;;;34.30;23.50;;;;;;5056332;28;20111;-56
2022/05/16 12:27:45;;;;;;;5.32;1.92;;;34.90;24.90;;;;;;5021765;28;20048;-56
2022/05/16 12:30:20;;;;;;;20.67;2.97;;;35.10;24.20;;;;;;5065718;28;20464;-56
2022/05/16 12:32:51;;;;;;;8.75;2.95;;;34.70;22.40;;;;;;5064748;28;20098;-56
2022/05/16 12:35:32;;;;;;;8.32;2.50;;;34.10;23.70;;;;;;5090072;28;20048;-57
2022/05/16 12:37:58;;;;;;;35.97;5.72;;;34.10;23.50;;;;;;5073297;28;20095;-56
2022/05/16 12:40:35;;;;;;;16.40;3.13;;;34.30;27.70;;;;;;5065472;28;20025;-56
2022/05/16 12:43:23;;;;;;;5.25;1.73;;;34.70;24.80;;;;;;5067513;28;20507;-56
2022/05/16 12:46:22;;;;;;;25.80;4.97;;;34.80;24.40;;;;;;5084831;28;20021;-57
2022/05/16 12:49:33;;;;;;;18.92;3.70;;;34.60;23.60;;;;;;5068581;28;20470;-57
2022/05/16 12:52:26;;;;;;;59.05;14.40;;;34.70;24.30;;;;;;5049116;28;20055;-56
2022/05/16 12:55:12;;;;;;;47.30;12.25;;;34.70;24.70;;;;;;5073509;28;20107;-57
2022/05/16 12:57:57;;;;;;;23.95;6.10;;;34.60;24.90;;;;;;5059697;28;20029;-57
2022/05/16 13:00:45;;;;;;;8.73;2.05;;;34.20;25.50;;;;;;5065104;28;20102;-56
2022/05/16 13:03:38;;;;;;;8.43;2.53;;;34.40;24.50;;;;;;5077142;28;20502;-56
2022/05/16 13:06:38;;;;;;;12.27;2.97;;;34.60;26.50;;;;;;5069139;28;20085;-56
2022/05/16 13:09:22;;;;;;;9.93;2.50;;;34.90;25.20;;;;;;5060524;28;20032;-56
2022/05/16 13:12:19;;;;;;;6.53;2.05;;;34.60;24.60;;;;;;5071033;28;20111;-57
2022/05/16 13:14:58;;;;;;;4.03;2.10;;;34.70;23.20;;;;;;5064320;28;20064;-57
2022/05/16 13:17:48;;;;;;;10.60;2.67;;;34.60;25.20;;;;;;5072894;28;20119;-56
2022/05/16 13:20:25;;;;;;;4.15;1.70;;;34.70;26.50;;;;;;5069458;28;20026;-56
2022/05/16 13:22:51;;;;;;;11.13;3.30;;;34.50;26.00;;;;;;5056422;28;20025;-56
2022/05/16 13:25:20;;;;;;;7.40;2.53;;;34.10;23.60;;;;;;5075557;28;20032;-56
2022/05/16 13:30:46;;;;;;;5.82;2.38;;;34.70;25.40;;;;;;5075346;28;20039;-56
2022/05/16 13:33:29;;;;;;;20.00;4.88;;;34.20;24.60;;;;;;5074864;28;20028;-57
2022/05/16 13:35:55;;;;;;;10.90;3.50;;;34.30;27.50;;;;;;5035150;28;20069;-56
2022/05/16 13:38:21;;;;;;;9.88;2.60;;;34.00;25.20;;;;;;5035209;28;20097;-57
2022/05/16 13:40:48;;;;;;;5.10;1.67;;;34.40;26.40;;;;;;5034964;28;20051;-56
2022/05/16 13:43:17;;;;;;;11.38;1.90;;;34.10;24.50;;;;;;5019353;28;20076;-56
2022/05/16 13:45:43;;;;;;;8.30;2.55;;;34.00;28.10;;;;;;5026616;28;20053;-56
2022/05/16 13:48:15;;;;;;;4.45;1.65;;;33.50;26.50;;;;;;5034920;28;20427;-56
2022/05/16 13:50:44;;;;;;;6.93;2.00;;;33.60;26.40;;;;;;5034896;28;20168;-56
2022/05/16 13:53:17;;;;;;;6.25;2.42;;;33.50;26.90;;;;;;5034935;28;20025;-56
2022/05/16 13:55:50;;;;;;;7.30;2.13;;;33.00;25.90;;;;;;5034724;28;20566;-56
2022/05/16 13:58:17;;;;;;;12.18;3.88;;;32.10;27.00;;;;;;5035004;28;20493;-57
2022/05/16 14:00:51;;;;;;;6.72;3.03;;;31.80;27.50;;;;;;5034912;28;20730;-56
2022/05/16 14:03:24;;;;;;;7.13;2.47;;;31.70;27.60;;;;;;5034293;28;20051;-56
2022/05/16 14:05:52;;;;;;;9.52;2.65;;;31.50;29.10;;;;;;5034903;28;20029;-56
2022/05/16 14:08:41;;;;;;;9.00;2.42;;;31.90;30.70;;;;;;5034770;28;20084;-56
2022/05/16 14:11:15;;;;;;;5.33;2.27;;;31.70;28.60;;;;;;5034289;28;20036;-56
2022/05/16 14:13:45;;;;;;;12.02;4.47;;;31.50;27.80;;;;;;5034687;28;20030;-56
2022/05/16 14:16:17;;;;;;;4.63;2.05;;;31.80;27.80;;;;;;5034477;28;20777;-56
2022/05/16 14:18:51;;;;;;;5.57;2.53;;;31.80;27.60;;;;;;5034461;28;20025;-56
2022/05/16 14:21:28;;;;;;;21.92;5.30;;;31.90;28.60;;;;;;5034659;28;20361;-56
2022/05/16 14:24:08;;;;;;;3.65;2.05;;;31.80;29.30;;;;;;5034339;28;20362;-56
2022/05/16 14:26:34;;;;;;;6.40;2.30;;;31.90;30.30;;;;;;5034630;28;20114;-56
2022/05/16 14:29:18;;;;;;;4.38;2.08;;;31.80;29.50;;;;;;5034556;28;20061;-56
2022/05/16 14:31:48;;;;;;;14.95;4.07;;;31.50;28.50;;;;;;5034369;28;20029;-56
2022/05/16 14:34:34;;;;;;;5.53;2.60;;;31.10;28.30;;;;;;5050066;28;20105;-56
2022/05/16 14:37:10;;;;;;;7.35;2.40;;;30.80;29.00;;;;;;5074421;28;20090;-56
2022/05/16 14:39:51;;;;;;;4.75;2.15;;;30.60;29.50;;;;;;5074545;28;20146;-56
2022/05/16 14:42:21;;;;;;;5.20;1.90;;;30.90;30.50;;;;;;5074985;28;20024;-56
2022/05/16 14:45:04;;;;;;;8.60;3.33;;;31.00;32.20;;;;;;5074511;28;20024;-56
2022/05/16 14:47:39;;;;;;;6.97;2.03;;;30.90;30.90;;;;;;5078422;28;20029;-56
2022/05/16 14:50:13;;;;;;;4.97;1.48;;;30.60;29.90;;;;;;5078462;28;20085;-56
2022/05/16 14:52:44;;;;;;;4.03;2.15;;;30.70;30.40;;;;;;5078176;28;20355;-56
2022/05/16 14:55:15;;;;;;;3.65;2.00;;;30.70;34.90;;;;;;5078083;28;20542;-56
2022/05/16 14:57:43;;;;;;;4.20;2.13;;;30.70;33.40;;;;;;5078234;28;20036;-56